Vážený zákazníku, vzhledem k situaci jsou naše výdejní místa v Náchodě a na Praze 9 uzavřena. Také omezujeme způsoby dopravy a rušíme možnost vyzvednutí na odběrných místech PPL, DPD a pobočkách České pošty. Zboží z eshopu lze i nadále objednávat s doručením na adresu (GLS a Česká pošta). Platby na dobírku jsou dočasně pozastavené. Nadále lze platit kartou a převodem. Přechodná pracovní doba eshopu 8:00 – 16:00. Držte se!
0 Košík

Novinky na eshopu

31.3.2020
Datum Produkt Cena Kód EAN
31.03.2020 Dezinfekce Anti-COVID (25l) 3.290,- 3900061 8595642003301
31.03.2020 Dezinfekce Anti-COVID (rozprašovač, 750ml) 199,- 3900038 8595642003240
31.03.2020 Dezinfekce Anti-COVID (1l) 199,- 3900041 8595642003257
23.03.2020 Gumová vana do kufru NOVLINE Mercedes CLA-Class 2019- (C118) 790,- ELEMENT0234110  
23.03.2020 Gumové autokoberce NOVLINE Renault Scenic 2016- 930,- ELEMENT3D02406210k 4610031592878
23.03.2020 Gumové autokoberce NOVLINE Ford Focus 2018- 950,- ELEMENT3D01866210k 4610031592892
23.03.2020 Gumová vana do kufru NOVLINE Mercedes GLE-Class 2014- (C292, coupe) 720,- ELEMENT02411B13 4610031594094
23.03.2020 Gumová vana do kufru NOVLINE Jaguar XE 2015- 690,- ELEMENT02184B10 4610031594100
23.03.2020 Gumová vana do kufru REZAW-PLAST Jaguar E-Pace 2018- 950,- 233603  
23.03.2020 Gumová vana do kufru REZAW-PLAST BMW 3 2019- (G21, combi) 1.090,- 232152  
23.03.2020 Lepidlo Mamut High Tack (290ml, (černé) 229,- MMTGHT2 8595100120083
23.03.2020 Lepidlo Mamut High Tack (290ml, bílé) 229,- MMTGHT1 8595100116659
10.03.2020 Gumové autokoberce REZAW-PLAST Ford Puma 2019- 870,- 200627  
10.03.2020 Gumové autokoberce REZAW-PLAST BMW 1 2019- (F40) 870,- 200735  
10.03.2020 Gumová vana do kufru REZAW-PLAST Mazda CX-30 2019- 930,- 232237  
10.03.2020 Gumové autokoberce REZAW-PLAST Isuzu ELF N-series L 2006- 750,- 203902  
10.03.2020 Gumové autokoberce REZAW-PLAST Fiat Doblo 2010- (3 míst) / Opel Combo D 2011-2018 (3 míst) 590,- 201520  
10.03.2020 Gumové autokoberce REZAW-PLAST Honda CR-V 2018- (5 míst) 1.090,- 200921  
10.03.2020 Gumové autokoberce REZAW-PLAST BMW X5 2018- (G05) 1.090,- 200731  
10.03.2020 Olej Shell Helix Ultra ECT HX8 5W-30 (1l) 230,- SH-550048140 5011987040465
10.03.2020 Olej Shell Helix Ultra ECT HX8 5W-30 (5l) 990,- SH-550048100 5011987040489
10.03.2020 Olej Shell Advance Ultra 4T 15W-50 (1l) 210,- SH-550044453 5011987022911
10.03.2020 Olej Shell Advance Ultra 4T 10W-40 (1l) 199,- SH-550044447 5011987069169
02.03.2020 Lišta hrany kufru AVISA Hyundai Tucson 2018- (po faceliftu) 1.490,- 2/35300  
02.03.2020 Loketní opěrka RATI Hyundai i30 2017- (ARMS) 1.490,- V01066 5998167710663
02.03.2020 Loketní opěrka RATI Hyundai i30 2017- (ARM2, metal grey) 2.650,- V01065 5998167710656
02.03.2020 Loketní opěrka RATI Hyundai i30 2017- (ARM2, černá) 2.560,- V01064 5998167710649
02.03.2020 Olej Shell Helix Ultra Professional AV-L 0W-30 (5l) 1.150,- SH-550041873 5011987860827
02.03.2020 Olej Shell Helix HX7 Professional AV 5W-30 (5l) 999,- SH-550040394 5011987860766
02.03.2020 Olej Shell Helix HX7 Professional AV 5W-30 (1l) 199,- SH-550040362 5011987860896
02.03.2020 Gumová vana do kufru NOVLINE Chrysler 300C 2012- (sedan) 740,- 09.06.B10 4610013382091
02.03.2020 Gumová vana do kufru NOVLINE Chrysler PT Cruiser 2000-2010 650,- 09.04.B11 4610013381902
02.03.2020 Gumové autokoberce GEYER & HOSAJA Renault Clio 2012-2019 650,- 873/4C 5901099013306
02.03.2020 Gumové autokoberce REZAW-PLAST Renault Clio 2020- 840,- 201930  
02.03.2020 Gumové autokoberce REZAW-PLAST Tesla Model 3 2017- 1.250,- 204002  
02.03.2020 Gumová vana do kufru REZAW-PLAST Volvo S60 2018- (sedan) 990,- 232925  
02.03.2020 Gumová vana do kufru REZAW-PLAST BMW 1 2019- (F40) 930,- 232151  
02.03.2020 Krytka koule na tažné zařízení s okem (PVC) 35,- 502.010 ---
02.03.2020 Loketní opěrka RATI ARM2 Peugeot 208 2020- (metal grey) 2.650,- V01068 5998167710687
02.03.2020 Loketní opěrka RATI ARM2 Peugeot 208 2020- (černá) 2.560,- V01067 5998167710670
02.03.2020 Loketní opěrka RATI ARMS Peugeot 208 2019- 1.490,- V01069 5998167710694
26.02.2020 Lišta hrany kufru AVISA Mercedes GLE-Class 2019- (W167, matná) 1.390,- 2/35428 5901250354286
19.02.2020 Lišta hrany kufru AVISA VW Caddy / Caddy Maxi 2004-2016 (tmavá) 1.290,- 2/45219 5901250452197
19.02.2020 Lišta hrany kufru AVISA Hyundai Tucson 2018- (po faceliftu, tmavá) 1.490,- 2/45188 5901250451886
19.02.2020 Lišta hrany kufru AVISA Mitsubishi ASX 2019- (tmavá) 1.190,- 2/45227 5901250452272
19.02.2020 Lišta hrany kufru AVISA Mitsubishi ASX 2019- (matná) 1.190,- 2/35473 5901250354736
19.02.2020 Prahové lišty AVISA Renault Clio 2020- (hb, tmavé, 2ks) 1.490,- 2/18033 5901250180335
19.02.2020 Prahové lišty AVISA Opel Corsa F 2019- (tmavé) 1.490,- 2/15030 5901250150307
17.02.2020 Gumové autokoberce NOVLINE Mini Countryman 2017- 930,- ELEMENT3D02318210k 4610031592045
17.02.2020 Gumové autokoberce NOVLINE Jaguar XE 2015- 930,- ELEMENT3D02184210 4610031592359
17.02.2020 Gumová vana do kufru NOVLINE Kia Ceed 2018- (combi) 950,- ELEMENT0222812 4610031592052
17.02.2020 Gumová vana do kufru NOVLINE Jaguar I-Pace 2018- 790,- ELEMENT01821B13 4610031592038
17.02.2020 Lišta hrany kufru AVISA Honda HR-V 2014- (matná) 1.290,- 2/35096 5901250350967
17.02.2020 Gumové autokoberce GLEDRING Peugeot 2008 2020- 690,- 0099 3830006480998
17.02.2020 Gumové autokoberce GLEDRING VW Golf VIII. 2020- 640,- 0071 3830006480714
17.02.2020 Gumové autokoberce GLEDRING Renault Captur 2020- 690,- 0028 3830006480288
17.02.2020 Gumová vana do kufru GLEDRING Volvo XC90 2015- B 890,- 1909 3830068669096
17.02.2020 Gumová vana do kufru GLEDRING Kia Ceed 2018- (combi) B 890,- 1456 3830068664565
17.02.2020 Gumová vana do kufru GLEDRING Hyundai Santa Fe 2018- (5 míst) B 890,- 1355 3830068663551
17.02.2020 Gumová vana do kufru GLEDRING Hyundai i30 2017- (combi) B 890,- 1354 3830068663544
17.02.2020 Gumová vana do kufru GLEDRING Audi Q3 Sportback 2019- (horní dno) B 830,- 1124 3830068661243
17.02.2020 Gumové autokoberce CIKCAR Citroen Berlingo / Opel Combo E / Peugeot Rifter 2019- (oválné fixace) 690,- RMCIKCIT00029 ---
17.02.2020 Gumové autokoberce REZAW-PLAST VW T-Cross 2019- 890,- 200127 5901165219786
17.02.2020 Gumové autokoberce REZAW-PLAST SsangYong Korando 2019- 990,- 203005 5901165219755
17.02.2020 Gumové autokoberce REZAW-PLAST BMW 3 2011-2019 (F30, F31) 890,- 200734 5901165219762
11.02.2020 Destilovaná voda VELVANA 3L 49,- 10133020003/205 8595026310728
11.02.2020 Gumové autokoberce GEYER & HOSAJA BMW 5 2013-2017 (F10, F11, béžové) 960,- 886/4B 5901099011982
11.02.2020 Lišta hrany kufru ALU-FROST VW Transporter T5 2003-2015 (carbon) 2.590,- 30-3451 ---
11.02.2020 Lišta hrany kufru ALU-FROST Hyundai Tucson 2018- (po faceliftu, carbon) 2.590,- 30-7249 ---
08.02.2020 Gumové autokoberce PETEX Mercedes V-Class 2014- (2. řada) 1.290,- 41211 4028985725554
08.02.2020 Gumová vana do kufru NOVLINE Opel Zafira A 1995-2005 690,- ELEMENT00344B14 4610031218198
08.02.2020 Gumová vana do kufru NOVLINE Honda Civic 2012-2016 (hb, subwoofer v kufru) 650,- CARHND00014 4610031134962
08.02.2020 Gumová vana do kufru NOVLINE Ford Explorer 2011-2019 (dlouhá verze) 890,- CARFRD00010 4610031124086
08.02.2020 Gumová vana do kufru NOVLINE Ford Explorer 2011-2019 (krátká verze) 650,- CARFRD00008 4610031133903
08.02.2020 Gumová vana do kufru NOVLINE Citroen C1 2005-2014 / Peugeot 107 2005-2014 560,- CARCRN00038 4610031138748
08.02.2020 Gumová vana do kufru NOVLINE VW Up 2012- (horní dno) 590,- 51.43.V11 4610013382626
08.02.2020 Gumová vana do kufru NOVLINE VW Up 2012- (dolní dno) 590,- 51.43.N11 4610013382633
08.02.2020 Gumová vana do kufru NOVLINE VW T-Roc 2017- (horní dno) 720,- ELEMENT5164B13 4610031162095
08.02.2020 Gumová vana do kufru NOVLINE Fiat Doblo 2010- (5 míst) 720,- ELEMENT0192914 4610031170519
03.02.2020 Ekolube Benzin Aditiv (450ml) 129,- 2236 ---
03.02.2020 Ekolube Diesel Aditiv (450ml) 110,- 2270 ---
03.02.2020 Ekolube Motor (350ml) 590,- 2242 ---
03.02.2020 Ekolube Motor (450ml) 690,- 2243 ---
03.02.2020 Ekolube Gear (250ml) 530,- 2267 ---
03.02.2020 Gumová vana do kufru NOVLINE Mitsubishi Colt 2004-2012 (5 dveří) 650,- 35.22.B11 4610013382664
03.02.2020 Gumová vana do kufru NOVLINE Mazda CX-9 2007-2016 890,- 33.16.G13 4610013382404
29.01.2020 Lišta hrany kufru AVISA Mitsubishi Eclipse Cross 2018- 1.190,- 2/38035 5901250380353
29.01.2020 Autopotahy LAMPA Dido 2 - přední (1 + 2) 1150,- 54798 8000692547984
29.01.2020 Gumová vana do kufru REZAW-PLAST Renault Clio 2020- (hb) 890,- 231399 5901165219656
29.01.2020 Gumové autokoberce REZAW-PLAST Mercedes GLA-Class X156 2013- 750,- 201718 5901165201033
29.01.2020 Gumové autokoberce FROGUM Subaru Legacy 2003-2009 / Outback 2003-2009 / Forester 2008-2013 650,- F0890 5907377541356
29.01.2020 Gumová vana do kufru RIGUM Jeep Wrangler 2019- 750,- 814040 8592980814040
29.01.2020 Gumové autokoberce RIGUM Jeep Wrangler 2019- 750,- 904833 8592980804833
29.01.2020 Lapače nečistot/zástěrky - Audi Q7 2015- (přední) 690,- 04.01.F13 4610031478004
29.01.2020 Lapače nečistot/zástěrky - Audi Q7 2015- (zadní) 690,- 04.01.E13 4610031478035
29.01.2020 Lapače nečistot/zástěrky - Mazda 3 2019- (přední) 590,- 02125.F11 4610031555835
29.01.2020 Lapače nečistot/zástěrky - Mazda 3 2019- (hb, zadní) 590,- 02125.E11 4610031555842
29.01.2020 Lapače nečistot/zástěrky - Suzuki Jimny 2018- (přední) 590,- 01907.F13 4610031584309
29.01.2020 Lapače nečistot/zástěrky - Mitsubishi ASX 2016- (přední) 590,- 01934.F13 4610031583395
29.01.2020 Lapače nečistot/zástěrky - Mitsubishi ASX 2016- (zadní) 590,- 01934.E13 4610031583371
29.01.2020 Adaptéry na stěrače HEYNER Top Lock A/C (2 kusy) 49,- 300820 4028224300825
24.01.2020 Gumové autokoberce NOVLINE Jaguar F-Pace 2016- 790,- ELEMENT3D01667210 4610031590546
24.01.2020 Lapače nečistot NOVLINE Suzuki Jimny 2018- (zadní) 590,- 01907.E13 4610031584293
24.01.2020 Gumové autokoberce NOVLINE Suzuki Jimny 2018- (automat) 720,- ELEMENT3D01907210kA 4610031555934
24.01.2020 Gumové autokoberce NOVLINE Suzuki Jimny 2018- (manuál) 720,- ELEMENT3D01907210kM 4610031555927
24.01.2020 Gumové koberce NOVLINE Fiat Talento 2016- / Opel Vivaro 2014-2019 / Renault Trafic 2014- (přední) 890,- ELEMENT3D01943210k.F 4610031547816
24.01.2020 Gumová vana do kufru NOVLINE Suzuki Jimny 2018- (bez organizéru v kufru) 490,- ELEMENT01907B13 4610031559338
24.01.2020 Vložka Opel Vivaro 2019- (L2, Long) 1.590,- 101235B 5901165211841
24.01.2020 Vložka Opel Vivaro 2019- (L3, Extra Long) 1.950,- 100147B 5901165213692
24.01.2020 Vložka Opel Vivaro 2019- (L1, Compact) 1.450,- 101238B 5901165214460
24.01.2020 Gumové autokoberce REZAW-PLAST Škoda Kamiq 2019- 950,- 200215 5901165219021
24.01.2020 Gumové autokoberce REZAW-PLAST Opel Zafira Life 2019- (3. řada) 460,- 201232 5901165214569
24.01.2020 Gumové autokoberce REZAW-PLAST Opel Zafira Life 2019- (2. řada) 650,- 201231 5901165214552
24.01.2020 Gumové autokoberce REZAW-PLAST Opel Zafira Life 2019- (přední) 650,- 201229P 5901165212794
24.01.2020 Gumové autokoberce REZAW-PLAST Opel Vivaro 2019- (přední) 820,- 201313 5901165212213
24.01.2020 Gumové autokoberce REZAW-PLAST Mazda CX-30 2019- 890,- 200817 5901165219632
24.01.2020 Gumová vana do kufru REZAW-PLAST Opel Zafira Life 2019- (za 3. řadu, délka 57cm) 730,- 231766 5901165215801
24.01.2020 Gumová vana do kufru REZAW-PLAST Opel Zafira Life 2019- (za 3. řadu, délka 80cm) 790,- 231768 5901165217126
24.01.2020 Gumová vana do kufru REZAW-PLAST Opel Zafira Life 2019- (za 3. řadu) 690,- 231765 5901165215825
24.01.2020 Gumová vana do kufru REZAW-PLAST Ssangyong Korando 2019- (dolní dno) 950,- 232814 5901165219625
24.01.2020 Gumová vana do kufru REZAW-PLAST Kia XCeed 2019- (dolní dno) 890,- 230762 5901165219618
24.01.2020 Loketní opěrka RATI Renault Clio 2020- (ARM2, černá) 2.560,- V01060 5998167710601
24.01.2020 Loketní opěrka RATI Renault Clio 2020- (ARM2, metal grey) 2.650,- V01061 5998167710618
24.01.2020 Loketní opěrka RATI Renault Clio 2020- (ARMS) 1.490,- V01062 5998167710625
22.01.2020 Gumová vana do kufru GLEDRING Volvo XC40 2018- B 830,- 1908 3830068669089
22.01.2020 Gumová vana do kufru GLEDRING Škoda Karoq 2017- (4x4, dolní dno) B 800,- 1516 3830068665166
22.01.2020 Gumová vana do kufru GLEDRING Seat Tarraco 2018- (horní posuvné dno) B 850,- 1808 3830068668082
22.01.2020 Gumová vana do kufru GLEDRING Nissan Juke 2020- S 800,- 1062 3830068660628
22.01.2020 Gumové autokoberce GLEDRING BMW X6 2020- (G06) 640,- 0539 3830006485399
22.01.2020 Gumové autokoberce GLEDRING Nissan Juke 2020- 640,- 0300 3830006483005
22.01.2020 Gumová palička malá 0,40 kg AKCE (bílá) 25,- OS1945 ---
22.01.2020 Gumová palička malá 0,40 kg AKCE (černá) 25,- OS1945 ---
22.01.2020 Lišta hrany kufru AVISA Mercedes C-Class 2007-2011 (W204, před FL, combi) 1.290,- 2/35672 5901250356709
17.01.2020 Zimní clona chladiče HEKO VW Golf VI 2008-2012 (dolní) 890,- CZ04090 5905784882345
17.01.2020 Gumové autokoberce PETEX Renault Clio 2020- 690,- 29112 4028985743145
17.01.2020 Lišta hrany kufru AVISA Volvo V60 2018- 1.490,- 2/35285 5901250352855
17.01.2020 Lišta hrany kufru AVISA VW Passat 2005-2010 (sedan) 1.290,- 2/35387 5901250353876
17.01.2020 Svítilna LAMPA (interiérová, 12V) 220,- 102-373043 8000692719909
17.01.2020 Mříž do zavazadlového prostoru LAMPA (85 - 140cm) 1.790,- 125-0103 8000692604267
17.01.2020 Mříž do zavazadlového prostoru LAMPA (84 - 142cm) 1.990,- 125-0102 8000692604236
14.01.2020 Gumové autokoberce PETEX Peugeot 2008 2020- 690,- 52710 4028985743039

Další články

Spolupráce závodní stáje Motor Team Macek a Auto Hotárek stále pokračuje!
Spolupráce závodní stáje Motor Team Macek a Auto Hotárek stále pokračuje!
Shrnutí průběhu sezóny 2019 a plány do budoucna závodní stáje Motor Team Macek, Náchod. Celý článek
2.9.2019
Povinná výbava podle nejnovější vyhlášky 206/2018 Sb.
Povinná výbava podle nejnovější vyhlášky 206/2018 Sb.
Podle nové vyhlášky, platné od 1. října 2018, dochází ke změnám ve složení povinné výbavy a v obsahu autolékárniček. Souhrn veškerých změn naleznete v našem článku. Celý článek
25.9.2018
Vybíráme vanu do kufru
Vybíráme vanu do kufru
Vybíráte vanu do kufru a rozhodujete se, který typ pořídit? Rádi Vám poradíme. Kromě různých materiálů si představíme i jednotlivé výrobce. Celý článek
5.12.2017
Tyto stránky využívají cookies. Používáním těchto stránek vyjadřujete souhlas s používáním cookies. Souhlasím